createdAt,value
2022-10-25T00:01:46.548Z,99874.63
2022-10-25T00:04:15.870Z,99867.19
2022-10-25T00:06:46.654Z,99862.38
2022-10-25T00:09:17.001Z,99866.38
2022-10-25T00:11:44.591Z,99864.13
2022-10-25T00:14:18.697Z,99869.78
2022-10-25T00:16:46.830Z,99868.34
2022-10-25T00:19:14.506Z,99857.25
2022-10-25T00:21:42.247Z,99875.22
2022-10-25T00:24:14.673Z,99869.78
2022-10-25T00:26:45.493Z,99869.31
2022-10-25T00:29:17.430Z,99866.00
2022-10-25T00:31:50.977Z,99864.13
2022-10-25T00:34:24.210Z,99855.50
2022-10-25T00:36:51.661Z,99854.53
2022-10-25T00:39:19.269Z,99850.69
2022-10-25T00:41:47.228Z,99854.84
2022-10-25T00:44:54.537Z,99863.13
2022-10-25T00:48:08.192Z,99859.13
2022-10-25T00:50:57.691Z,99874.53
2022-10-25T00:53:40.210Z,99875.13
2022-10-25T00:56:23.626Z,99871.13
2022-10-25T00:58:55.746Z,99883.22
2022-10-25T01:01:28.162Z,99882.38
2022-10-25T01:04:03.922Z,99873.19
2022-10-25T01:06:40.950Z,99880.63
2022-10-25T01:09:13.937Z,99874.31
2022-10-25T01:11:41.493Z,99882.16
2022-10-25T01:14:14.762Z,99878.38
2022-10-25T01:17:05.116Z,99876.28
2022-10-25T01:20:10.031Z,99881.66
2022-10-25T01:22:48.157Z,99877.75
2022-10-25T01:25:25.699Z,99879.72
2022-10-25T01:28:19.823Z,99876.88
2022-10-25T01:31:10.276Z,99876.41
2022-10-25T01:33:51.424Z,99870.13
2022-10-25T01:36:25.325Z,99867.09
2022-10-25T01:39:11.051Z,99869.50
2022-10-25T01:41:47.709Z,99865.88
2022-10-25T01:44:43.910Z,99865.19
2022-10-25T01:47:26.730Z,99877.28
2022-10-25T01:50:07.970Z,99875.69
2022-10-25T01:52:35.323Z,99860.34
2022-10-25T01:55:09.857Z,99856.69
2022-10-25T01:57:58.838Z,99863.38
2022-10-25T02:00:28.706Z,99871.00
2022-10-25T02:03:35.076Z,99869.56
2022-10-25T02:06:24.304Z,99863.16
2022-10-25T02:09:31.495Z,99879.94
2022-10-25T02:12:05.378Z,99872.06
2022-10-25T02:14:39.346Z,99871.41
2022-10-25T02:17:13.159Z,99866.09
2022-10-25T02:19:47.076Z,99874.88
2022-10-25T02:22:18.731Z,99862.75
2022-10-25T02:24:53.228Z,99871.69
2022-10-25T02:27:23.404Z,99877.41
2022-10-25T02:29:53.882Z,99862.31
2022-10-25T02:32:25.679Z,99869.69
2022-10-25T02:34:54.566Z,99893.44
2022-10-25T02:37:22.613Z,99883.72
2022-10-25T02:39:55.068Z,99902.47
2022-10-25T02:42:24.104Z,99885.28
2022-10-25T02:44:52.657Z,99891.94
2022-10-25T02:47:29.216Z,99892.03
2022-10-25T02:49:56.662Z,99884.59
2022-10-25T02:52:25.021Z,99900.56
2022-10-25T02:54:52.288Z,99909.69
2022-10-25T02:57:23.168Z,99909.88
2022-10-25T02:59:57.237Z,99905.72
2022-10-25T03:02:27.028Z,99915.25
2022-10-25T03:04:55.619Z,99905.13
2022-10-25T03:07:46.079Z,99924.75
2022-10-25T03:10:14.659Z,99909.72
2022-10-25T03:12:42.322Z,99916.25
2022-10-25T03:15:11.230Z,99926.06
2022-10-25T03:17:43.347Z,99927.72
2022-10-25T03:20:11.285Z,99907.53
2022-10-25T03:22:40.116Z,99928.28
2022-10-25T03:27:42.520Z,99931.97
2022-10-25T03:30:12.892Z,99920.69
2022-10-25T03:32:43.619Z,99928.19
2022-10-25T03:35:10.954Z,99911.47
2022-10-25T03:37:39.338Z,99923.88
2022-10-25T03:40:09.837Z,99923.88
2022-10-25T03:42:45.184Z,99923.56
2022-10-25T03:45:13.841Z,99924.25
2022-10-25T03:47:45.742Z,99929.97
2022-10-25T03:50:15.588Z,99935.38
2022-10-25T03:52:44.960Z,99938.09
2022-10-25T03:55:12.548Z,99935.16
2022-10-25T03:57:43.285Z,99942.47
2022-10-25T04:00:22.063Z,99935.81
2022-10-25T04:03:01.700Z,99945.50
2022-10-25T04:05:32.785Z,99943.84
2022-10-25T04:08:01.623Z,99953.22
2022-10-25T04:10:29.696Z,99943.94
2022-10-25T04:13:04.402Z,99948.38
2022-10-25T04:15:31.971Z,99955.81
2022-10-25T04:18:06.270Z,99958.53
2022-10-25T04:20:34.983Z,99956.84
2022-10-25T04:23:28.155Z,99979.84
2022-10-25T04:29:40.080Z,99967.34
2022-10-25T04:32:33.390Z,99971.22
2022-10-25T04:35:02.665Z,99976.22
2022-10-25T04:37:38.687Z,99966.84
2022-10-25T04:40:09.574Z,99972.50
2022-10-25T04:42:38.294Z,99974.66
2022-10-25T04:45:06.293Z,99986.84
2022-10-25T04:47:40.156Z,99979.81
2022-10-25T04:50:09.589Z,99980.19
2022-10-25T04:52:38.580Z,99966.06
2022-10-25T04:55:10.949Z,99972.53
2022-10-25T04:57:42.712Z,99979.50
2022-10-25T05:00:20.808Z,99978.03
2022-10-25T05:02:53.172Z,99975.78
2022-10-25T05:05:25.448Z,99991.59
2022-10-25T05:07:58.023Z,99993.03
2022-10-25T05:10:36.368Z,99994.31
2022-10-25T05:13:32.372Z,99988.28
2022-10-25T05:16:00.742Z,99992.03
2022-10-25T05:18:28.633Z,99992.50
2022-10-25T05:20:59.225Z,100000.44
2022-10-25T05:23:32.575Z,100001.25
2022-10-25T05:26:11.818Z,100005.19
2022-10-25T05:28:43.017Z,100012.69
2022-10-25T05:31:20.687Z,100012.75
2022-10-25T05:36:43.374Z,100042.47
2022-10-25T05:39:28.959Z,100050.16
2022-10-25T05:42:14.791Z,100050.22
2022-10-25T05:45:08.565Z,100070.22
2022-10-25T05:47:39.792Z,100062.56
2022-10-25T05:50:12.501Z,100072.97
2022-10-25T05:52:48.131Z,100075.03
2022-10-25T05:55:31.742Z,100086.53
2022-10-25T05:58:05.688Z,100068.34
2022-10-25T06:04:00.996Z,100097.78
2022-10-25T06:09:21.703Z,100114.69
2022-10-25T06:12:18.229Z,100113.06
2022-10-25T06:14:53.324Z,100106.53
2022-10-25T06:18:13.018Z,100115.91
2022-10-25T06:20:42.862Z,100118.50
2022-10-25T06:23:14.153Z,100129.09
2022-10-25T06:26:02.912Z,100126.31
2022-10-25T06:28:33.330Z,100134.75
2022-10-25T06:31:24.489Z,100141.59
2022-10-25T06:33:52.875Z,100143.00
2022-10-25T06:36:34.549Z,100138.41
2022-10-25T06:39:08.346Z,100140.19
2022-10-25T06:41:45.462Z,100133.53
2022-10-25T06:44:15.722Z,100146.72
2022-10-25T06:47:20.340Z,100145.34
2022-10-25T06:49:47.821Z,100151.69
2022-10-25T06:53:10.525Z,100150.81
2022-10-25T06:56:25.812Z,100160.22
2022-10-25T06:59:32.732Z,100154.41
2022-10-25T07:02:04.682Z,100152.41
2022-10-25T07:04:37.644Z,100153.94
2022-10-25T07:07:13.527Z,100151.16
2022-10-25T07:09:54.848Z,100154.78
2022-10-25T07:12:31.336Z,100159.13
2022-10-25T07:15:01.249Z,100156.47
2022-10-25T07:17:30.437Z,100148.03
2022-10-25T07:19:58.804Z,100145.78
2022-10-25T07:22:29.453Z,100141.34
2022-10-25T07:24:58.052Z,100140.09
2022-10-25T07:27:27.124Z,100128.47
2022-10-25T07:29:54.813Z,100131.47
2022-10-25T07:32:23.301Z,100146.19
2022-10-25T07:34:54.531Z,100143.16
2022-10-25T07:37:23.027Z,100140.28
2022-10-25T07:39:52.482Z,100145.94
2022-10-25T07:42:21.711Z,100149.31
2022-10-25T07:44:54.379Z,100146.16
2022-10-25T07:47:23.145Z,100150.03
2022-10-25T07:49:51.276Z,100155.22
2022-10-25T07:52:22.522Z,100149.38
2022-10-25T07:54:59.459Z,100153.13
2022-10-25T07:57:27.495Z,100138.94
2022-10-25T07:59:55.290Z,100152.19
2022-10-25T08:02:26.319Z,100144.06
2022-10-25T08:04:55.324Z,100156.88
2022-10-25T08:07:27.422Z,100149.41
2022-10-25T08:09:56.971Z,100136.09
2022-10-25T08:12:24.591Z,100147.66
2022-10-25T08:14:53.182Z,100154.41
2022-10-25T08:17:20.657Z,100156.41
2022-10-25T08:19:51.201Z,100144.44
2022-10-25T08:22:19.453Z,100139.34
2022-10-25T08:24:52.185Z,100149.19
2022-10-25T08:27:20.849Z,100152.88
2022-10-25T08:29:49.771Z,100162.28
2022-10-25T08:32:18.821Z,100159.38
2022-10-25T08:34:47.258Z,100161.59
2022-10-25T08:37:14.783Z,100142.88
2022-10-25T08:39:42.030Z,100139.53
2022-10-25T08:42:23.091Z,100141.22
2022-10-25T08:45:02.545Z,100141.69
2022-10-25T08:47:41.489Z,100143.47
2022-10-25T08:50:36.133Z,100144.63
2022-10-25T08:53:18.791Z,100149.56
2022-10-25T08:55:59.109Z,100146.22
2022-10-25T08:58:54.714Z,100136.88
2022-10-25T09:01:32.391Z,100140.19
2022-10-25T09:04:05.662Z,100141.84
2022-10-25T09:06:42.687Z,100150.09
2022-10-25T09:09:20.663Z,100149.56
2022-10-25T09:11:54.734Z,100158.53
2022-10-25T09:14:28.267Z,100160.16
2022-10-25T09:17:01.744Z,100154.53
2022-10-25T09:19:39.653Z,100154.00
2022-10-25T09:22:30.511Z,100148.72
2022-10-25T09:25:23.272Z,100146.50
2022-10-25T09:28:11.378Z,100139.13
2022-10-25T09:30:43.221Z,100126.69
2022-10-25T09:33:19.843Z,100124.06
2022-10-25T09:35:50.229Z,100114.97
2022-10-25T09:38:47.997Z,100109.84
2022-10-25T09:41:36.095Z,100100.34
2022-10-25T09:44:26.374Z,100119.63
2022-10-25T09:47:03.145Z,100141.81
2022-10-25T09:49:49.232Z,100150.53
2022-10-25T09:52:23.274Z,100147.44
2022-10-25T09:55:28.026Z,100165.19
2022-10-25T09:57:55.955Z,100173.44
2022-10-25T10:00:24.444Z,100176.69
2022-10-25T10:02:54.916Z,100168.22
2022-10-25T10:05:25.964Z,100148.91
2022-10-25T10:07:56.286Z,100155.41
2022-10-25T10:10:28.817Z,100147.63
2022-10-25T10:13:18.636Z,100159.75
2022-10-25T10:15:52.760Z,100152.88
2022-10-25T10:18:21.251Z,100158.88
2022-10-25T10:21:01.402Z,100164.44
2022-10-25T10:23:42.980Z,100160.44
2022-10-25T10:26:45.290Z,100149.72
2022-10-25T10:29:24.602Z,100143.22
2022-10-25T10:31:54.731Z,100153.44
2022-10-25T10:34:37.414Z,100143.81
2022-10-25T10:37:21.113Z,100151.25
2022-10-25T10:40:17.830Z,100149.53
2022-10-25T10:42:45.672Z,100153.84
2022-10-25T10:45:18.057Z,100153.78
2022-10-25T10:47:59.184Z,100147.34
2022-10-25T10:50:32.851Z,100149.38
2022-10-25T10:53:06.458Z,100151.31
2022-10-25T10:55:49.581Z,100146.94
2022-10-25T10:58:19.803Z,100139.50
2022-10-25T11:00:55.158Z,100138.78
2022-10-25T11:03:59.454Z,100142.38
2022-10-25T11:06:35.332Z,100134.13
2022-10-25T11:09:13.012Z,100133.81
2022-10-25T11:11:40.776Z,100125.78
2022-10-25T11:14:15.286Z,100135.91
2022-10-25T11:17:17.169Z,100130.00
2022-10-25T11:19:53.416Z,100125.84
2022-10-25T11:22:38.145Z,100132.75
2022-10-25T11:25:05.642Z,100138.28
2022-10-25T11:28:00.264Z,100146.97
2022-10-25T11:30:38.197Z,100148.53
2022-10-25T11:33:32.853Z,100159.41
2022-10-25T11:36:03.182Z,100146.63
2022-10-25T11:38:40.809Z,100133.75
2022-10-25T11:41:11.087Z,100145.81
2022-10-25T11:43:48.112Z,100150.28
2022-10-25T11:46:20.993Z,100146.41
2022-10-25T11:49:09.606Z,100131.38
2022-10-25T11:52:02.741Z,100138.91
2022-10-25T11:55:23.084Z,100133.03
2022-10-25T11:58:18.020Z,100139.56
2022-10-25T12:00:56.036Z,100137.41
2022-10-25T12:04:01.837Z,100128.28
2022-10-25T12:06:30.477Z,100131.69
2022-10-25T12:09:35.288Z,100130.53
2022-10-25T12:12:11.095Z,100129.66
2022-10-25T12:14:49.846Z,100136.09
2022-10-25T12:17:30.977Z,100121.75
2022-10-25T12:20:07.561Z,100123.25
2022-10-25T12:22:43.344Z,100115.19
2022-10-25T12:25:28.459Z,100122.84
2022-10-25T12:28:12.225Z,100116.28
2022-10-25T12:30:41.697Z,100116.38
2022-10-25T12:33:40.282Z,100121.63
2022-10-25T12:36:23.316Z,100117.34
2022-10-25T12:38:50.885Z,100125.97
2022-10-25T12:41:38.376Z,100122.72
2022-10-25T12:44:12.150Z,100126.81
2022-10-25T12:47:03.456Z,100131.53
2022-10-25T12:49:37.628Z,100142.38
2022-10-25T12:52:25.751Z,100132.22
2022-10-25T12:55:38.145Z,100139.25
2022-10-25T12:58:17.374Z,100130.28
2022-10-25T13:00:56.854Z,100133.13
2022-10-25T13:03:40.663Z,100132.66
2022-10-25T13:06:16.729Z,100124.66
2022-10-25T13:08:44.638Z,100141.00
2022-10-25T13:11:12.760Z,100128.50
2022-10-25T13:13:48.990Z,100132.94
2022-10-25T13:16:26.179Z,100137.28
2022-10-25T13:19:30.666Z,100144.16
2022-10-25T13:22:28.095Z,100139.44
2022-10-25T13:24:56.738Z,100141.00
2022-10-25T13:27:27.403Z,100122.22
2022-10-25T13:30:02.410Z,100134.94
2022-10-25T13:32:34.301Z,100120.56
2022-10-25T13:35:03.812Z,100138.53
2022-10-25T13:37:34.284Z,100138.53
2022-10-25T13:40:21.110Z,100140.72
2022-10-25T13:42:59.085Z,100143.94
2022-10-25T13:45:45.774Z,100148.72
2022-10-25T13:48:29.385Z,100149.84
2022-10-25T13:51:01.345Z,100159.47
2022-10-25T13:53:40.746Z,100150.13
2022-10-25T13:56:17.395Z,100158.31
2022-10-25T13:58:52.976Z,100153.06
2022-10-25T14:01:21.749Z,100148.53
2022-10-25T14:04:02.631Z,100145.28
2022-10-25T14:06:43.093Z,100154.47
2022-10-25T14:09:27.635Z,100143.91
2022-10-25T14:12:13.757Z,100158.25
2022-10-25T14:14:48.125Z,100150.69
2022-10-25T14:17:44.700Z,100150.19
2022-10-25T14:20:24.789Z,100155.06
2022-10-25T14:22:56.411Z,100158.97
2022-10-25T14:25:35.973Z,100162.81
2022-10-25T14:28:16.639Z,100161.03
2022-10-25T14:30:47.358Z,100161.13
2022-10-25T14:33:28.905Z,100155.78
2022-10-25T14:36:27.718Z,100157.50
2022-10-25T14:38:58.399Z,100157.09
2022-10-25T14:41:29.273Z,100168.06
2022-10-25T14:43:57.778Z,100153.59
2022-10-25T14:46:27.537Z,100167.94
2022-10-25T14:49:03.727Z,100170.03
2022-10-25T14:51:35.511Z,100174.91
2022-10-25T14:54:20.336Z,100158.78
2022-10-25T14:56:51.019Z,100161.19
2022-10-25T14:59:20.181Z,100163.00
2022-10-25T15:02:21.125Z,100171.47
2022-10-25T15:04:55.068Z,100169.41
2022-10-25T15:07:31.467Z,100168.59
2022-10-25T15:10:01.202Z,100167.94
2022-10-25T15:12:30.643Z,100172.81
2022-10-25T15:15:19.155Z,100183.56
2022-10-25T15:17:54.254Z,100164.44
2022-10-25T15:20:21.873Z,100199.00
2022-10-25T15:22:51.131Z,100182.16
2022-10-25T15:25:21.694Z,100188.19
2022-10-25T15:27:51.517Z,100174.69
2022-10-25T15:30:39.169Z,100187.97
2022-10-25T15:33:18.692Z,100136.78
2022-10-25T15:35:52.372Z,100174.69
2022-10-25T15:38:20.111Z,100176.69
2022-10-25T15:40:48.780Z,100179.31
2022-10-25T15:43:18.478Z,100185.25
2022-10-25T15:45:45.974Z,100186.06
2022-10-25T15:48:19.194Z,100185.34
2022-10-25T15:50:58.050Z,100190.81
2022-10-25T15:53:25.990Z,100189.25
2022-10-25T15:55:53.816Z,100196.28
2022-10-25T15:58:21.327Z,100181.63
2022-10-25T16:00:51.997Z,100191.38
2022-10-25T16:03:25.021Z,100184.72
2022-10-25T16:05:52.733Z,100175.09
2022-10-25T16:08:20.249Z,100188.84
2022-10-25T16:10:47.863Z,100182.56
2022-10-25T16:13:36.940Z,100196.25
2022-10-25T16:16:11.722Z,100195.53
2022-10-25T16:18:49.777Z,100176.72
2022-10-25T16:21:19.802Z,100176.72
2022-10-25T16:23:49.416Z,100191.72
2022-10-25T16:26:28.543Z,100193.97
2022-10-25T16:28:57.109Z,100192.78
2022-10-25T16:31:24.596Z,100191.72
2022-10-25T16:33:52.445Z,100202.25
2022-10-25T16:36:20.702Z,100204.38
2022-10-25T16:38:48.433Z,100181.63
2022-10-25T16:41:29.472Z,100199.13
2022-10-25T16:43:58.554Z,100206.13
2022-10-25T16:46:26.451Z,100196.78
2022-10-25T16:48:55.904Z,100207.41
2022-10-25T16:51:25.955Z,100211.88
2022-10-25T16:53:54.559Z,100224.44
2022-10-25T16:56:21.877Z,100220.34
2022-10-25T16:58:49.409Z,100231.28
2022-10-25T17:01:26.574Z,100233.53
2022-10-25T17:03:55.239Z,100244.28
2022-10-25T17:06:40.113Z,100240.75
2022-10-25T17:09:08.126Z,100245.34
2022-10-25T17:11:36.483Z,100240.44
2022-10-25T17:14:04.397Z,100245.22
2022-10-25T17:16:31.663Z,100248.53
2022-10-25T17:18:59.124Z,100237.53
2022-10-25T17:21:27.996Z,100249.88
2022-10-25T17:23:56.737Z,100251.56
2022-10-25T17:26:24.088Z,100241.13
2022-10-25T17:28:51.635Z,100245.53
2022-10-25T17:31:18.979Z,100244.91
2022-10-25T17:33:47.654Z,100238.22
2022-10-25T17:36:18.764Z,100250.34
2022-10-25T17:38:46.524Z,100253.06
2022-10-25T17:41:14.785Z,100238.22
2022-10-25T17:43:42.908Z,100240.06
2022-10-25T17:46:19.670Z,100246.09
2022-10-25T17:48:47.677Z,100238.84
2022-10-25T17:51:15.929Z,100245.72
2022-10-25T17:53:43.784Z,100233.22
2022-10-25T17:56:13.653Z,100237.69
2022-10-25T17:58:42.220Z,100235.03
2022-10-25T18:01:11.162Z,100231.25
2022-10-25T18:03:39.360Z,100209.41
2022-10-25T18:06:12.402Z,100204.25
2022-10-25T18:08:42.271Z,100237.41
2022-10-25T18:11:14.104Z,100240.16
2022-10-25T18:13:42.092Z,100242.88
2022-10-25T18:16:12.498Z,100246.28
2022-10-25T18:18:40.201Z,100245.44
2022-10-25T18:21:10.837Z,100232.72
2022-10-25T18:23:42.434Z,100225.75
2022-10-25T18:26:12.019Z,100232.44
2022-10-25T18:28:39.739Z,100233.25
2022-10-25T18:31:12.744Z,100245.13
2022-10-25T18:33:42.730Z,100243.25
2022-10-25T18:36:16.025Z,100250.00
2022-10-25T18:38:44.529Z,100252.72
2022-10-25T18:41:22.421Z,100260.50
2022-10-25T18:43:50.866Z,100258.63
2022-10-25T18:46:18.836Z,100249.00
2022-10-25T18:48:55.491Z,100256.31
2022-10-25T18:51:24.656Z,100256.78
2022-10-25T18:54:00.501Z,100251.78
2022-10-25T18:56:29.717Z,100257.88
2022-10-25T18:58:58.243Z,100239.31
2022-10-25T19:01:32.255Z,100248.13
2022-10-25T19:04:02.839Z,100255.66
2022-10-25T19:06:32.577Z,100255.44
2022-10-25T19:09:00.654Z,100254.38
2022-10-25T19:11:27.894Z,100269.28
2022-10-25T19:13:56.305Z,100260.66
2022-10-25T19:16:24.268Z,100251.06
2022-10-25T19:18:51.868Z,100258.59
2022-10-25T19:21:20.316Z,100229.59
2022-10-25T19:23:48.666Z,100256.13
2022-10-25T19:26:21.162Z,100274.53
2022-10-25T19:28:56.730Z,100272.06
2022-10-25T19:31:24.752Z,100274.38
2022-10-25T19:33:53.489Z,100271.69
2022-10-25T19:36:20.979Z,100272.91
2022-10-25T19:38:48.901Z,100269.34
2022-10-25T19:41:24.055Z,100271.06
2022-10-25T19:43:56.771Z,100267.16
2022-10-25T19:46:25.196Z,100266.34
2022-10-25T19:48:52.803Z,100275.78
2022-10-25T19:51:20.909Z,100278.94
2022-10-25T19:53:49.166Z,100271.44
2022-10-25T19:56:22.235Z,100282.34
2022-10-25T19:58:50.461Z,100287.59
2022-10-25T20:01:23.583Z,100289.72
2022-10-25T20:03:54.771Z,100283.25
2022-10-25T20:06:25.202Z,100265.53
2022-10-25T20:08:53.945Z,100280.97
2022-10-25T20:11:23.100Z,100286.63
2022-10-25T20:13:55.208Z,100282.50
2022-10-25T20:16:23.362Z,100283.56
2022-10-25T20:18:51.282Z,100282.50
2022-10-25T20:21:22.469Z,100299.25
2022-10-25T20:23:56.782Z,100300.28
2022-10-25T20:26:33.240Z,100292.00
2022-10-25T20:29:03.637Z,100304.72
2022-10-25T20:31:32.574Z,100304.13
2022-10-25T20:34:02.530Z,100312.50
2022-10-25T20:36:44.423Z,100300.56
2022-10-25T20:39:13.313Z,100307.47
2022-10-25T20:41:43.058Z,100258.44
2022-10-25T20:44:11.216Z,100245.88
2022-10-25T20:46:38.473Z,100297.69
2022-10-25T20:49:07.711Z,100299.34
2022-10-25T20:51:35.234Z,100306.25
2022-10-25T20:54:09.589Z,100306.47
2022-10-25T20:56:39.916Z,100312.75
2022-10-25T20:59:08.487Z,100316.72
2022-10-25T21:01:36.097Z,100318.19
2022-10-25T21:04:04.145Z,100313.16
2022-10-25T21:06:31.421Z,100296.03
2022-10-25T21:09:01.117Z,100308.16
2022-10-25T21:11:33.161Z,100309.84
2022-10-25T21:14:11.881Z,100312.75
2022-10-25T21:16:44.688Z,100307.75
2022-10-25T21:19:12.710Z,100306.09
2022-10-25T21:22:05.157Z,100298.38
2022-10-25T21:27:02.760Z,100288.31
2022-10-25T21:29:31.237Z,100290.81
2022-10-25T21:31:58.627Z,100297.50
2022-10-25T21:34:26.107Z,100301.47
2022-10-25T21:36:53.491Z,100303.34
2022-10-25T21:39:24.061Z,100285.16
2022-10-25T21:41:52.733Z,100281.19
2022-10-25T21:44:22.319Z,100280.16
2022-10-25T21:46:49.757Z,100290.59
2022-10-25T21:49:17.245Z,100291.03
2022-10-25T21:51:44.507Z,100301.88
2022-10-25T21:54:14.496Z,100291.88
2022-10-25T21:56:43.018Z,100292.25
2022-10-25T21:59:10.510Z,100288.50
2022-10-25T22:01:37.952Z,100278.66
2022-10-25T22:04:05.805Z,100286.81
2022-10-25T22:06:33.119Z,100276.59
2022-10-25T22:09:00.656Z,100281.78
2022-10-25T22:11:31.033Z,100282.59
2022-10-25T22:14:01.404Z,100291.81
2022-10-25T22:16:29.600Z,100288.47
2022-10-25T22:19:03.159Z,100294.91
2022-10-25T22:21:39.973Z,100295.53
2022-10-25T22:24:09.281Z,100281.06
2022-10-25T22:26:38.933Z,100295.06
2022-10-25T22:29:06.698Z,100296.28
2022-10-25T22:31:36.293Z,100284.59
2022-10-25T22:34:06.649Z,100299.63
2022-10-25T22:36:39.398Z,100290.66
2022-10-25T22:39:08.414Z,100292.97
2022-10-25T22:41:36.012Z,100295.88
2022-10-25T22:44:04.494Z,100293.38
2022-10-25T22:46:34.286Z,100289.41
2022-10-25T22:49:07.587Z,100299.84
2022-10-25T22:51:36.452Z,100301.50
2022-10-25T22:54:04.077Z,100304.19
2022-10-25T22:56:32.422Z,100311.28
2022-10-25T22:59:02.807Z,100301.88
2022-10-25T23:01:35.117Z,100310.81
2022-10-25T23:04:06.212Z,100319.56
2022-10-25T23:06:35.681Z,100304.72
2022-10-25T23:09:07.042Z,100324.56
2022-10-25T23:11:37.245Z,100322.69
2022-10-25T23:14:14.718Z,100323.91
2022-10-25T23:16:53.276Z,100323.09
2022-10-25T23:20:02.066Z,100330.81
2022-10-25T23:22:40.567Z,100328.91
2022-10-25T23:25:08.959Z,100317.84
2022-10-25T23:27:36.185Z,100320.38
2022-10-25T23:30:03.811Z,100324.78
2022-10-25T23:32:31.078Z,100317.66
2022-10-25T23:35:00.170Z,100323.94
2022-10-25T23:37:28.614Z,100324.97
2022-10-25T23:39:56.115Z,100330.63
2022-10-25T23:42:26.054Z,100332.56
2022-10-25T23:45:01.188Z,100334.00
2022-10-25T23:47:29.401Z,100316.19
2022-10-25T23:50:00.278Z,100335.19
2022-10-25T23:52:36.561Z,100334.75
2022-10-25T23:55:06.535Z,100333.69
2022-10-25T23:57:35.471Z,100338.28
